Holstebro, Denmark
Current Conditions -  °F | °C
As of 12:50 AM on Tuesday 23 Dec 2014 (Local Time) from EKKA Reporting Station
Scattered Clouds Scattered Clouds  
Wind Chill: 41°   Ceiling: Unl
Heat Index: 46°   Visibility: 4mi
Dew Point: 43°   Wind: 13mph
Humidity: 87%   Direction: 250°WSW
Pressure: 29.56"   Gusts: NA
Location:  56.36°N, 8.62°E
Report Text: EKKA 222350Z 25011KT 7000 FEW012 SCT016 08/06 Q1001
Loading
Personal Weather Stations






























Interactive Weather Map New forecast layout! Learn more

10-Day Weather Forecast

Advertisements
Track Severe Weather on mobile